createdAt,value
2015-11-27T00:00:12.039Z,1012.2
2015-11-27T00:01:11.589Z,1012.2
2015-11-27T00:02:11.467Z,1012.2
2015-11-27T00:03:11.470Z,1012.2
2015-11-27T00:04:11.361Z,1012.3
2015-11-27T00:05:11.300Z,1012.2
2015-11-27T00:06:11.256Z,1012.2
2015-11-27T00:07:11.197Z,1012.1
2015-11-27T00:08:11.136Z,1012.2
2015-11-27T00:09:11.077Z,1012.1
2015-11-27T00:10:11.016Z,1012
2015-11-27T00:11:11.160Z,1012.1
2015-11-27T00:12:11.100Z,1012.1
2015-11-27T00:13:10.853Z,1012.1
2015-11-27T00:14:10.981Z,1012
2015-11-27T00:15:10.749Z,1012.2
2015-11-27T00:16:10.658Z,1012.2
2015-11-27T00:17:10.613Z,1012.2
2015-11-27T00:18:10.538Z,1012.2
2015-11-27T00:19:10.526Z,1012
2015-11-27T00:20:10.434Z,1012.2
2015-11-27T00:21:10.406Z,1012.1
2015-11-27T00:22:10.330Z,1012.1
2015-11-27T00:23:10.255Z,1012
2015-11-27T00:24:09.461Z,1012
2015-11-27T00:25:10.386Z,1012.1
2015-11-27T00:26:10.295Z,1012.1
2015-11-27T00:27:10.063Z,1012
2015-11-27T00:28:09.971Z,1012
2015-11-27T00:29:09.928Z,1012.1
2015-11-27T00:30:09.868Z,1012
2015-11-27T00:31:10.012Z,1012
2015-11-27T00:32:09.795Z,1012.1
2015-11-27T00:33:09.985Z,1012
2015-11-27T00:34:09.622Z,1011.9
2015-11-27T00:35:08.786Z,1011.9
2015-11-27T00:36:09.496Z,1011.9
2015-11-27T00:37:09.426Z,1012
2015-11-27T00:38:09.355Z,1011.9
2015-11-27T00:39:09.305Z,1011.9
2015-11-27T00:40:09.226Z,1012
2015-11-27T00:41:09.193Z,1012
2015-11-27T00:42:09.146Z,1011.9
2015-11-27T00:43:09.065Z,1012.1
2015-11-27T00:44:08.988Z,1011.9
2015-11-27T00:45:08.927Z,1012
2015-11-27T00:46:08.897Z,1012
2015-11-27T00:47:09.039Z,1012
2015-11-27T00:48:08.775Z,1012
2015-11-27T00:49:08.698Z,1012
2015-11-27T00:50:08.638Z,1011.9
2015-11-27T00:51:08.593Z,1011.9
2015-11-27T00:52:08.518Z,1011.9
2015-11-27T00:53:08.457Z,1011.9
2015-11-27T00:54:08.632Z,1012
2015-11-27T00:55:08.352Z,1012
2015-11-27T00:56:08.308Z,1011.8
2015-11-27T00:57:08.232Z,1012
2015-11-27T00:58:08.188Z,1011.9
2015-11-27T00:59:08.143Z,1011.8
2015-11-27T01:00:07.928Z,1011.9
2015-11-27T01:01:07.993Z,1011.8
2015-11-27T01:02:07.948Z,1011.9
2015-11-27T01:03:08.076Z,1011.9
2015-11-27T01:04:07.845Z,1011.9
2015-11-27T01:05:07.769Z,1011.9
2015-11-27T01:06:07.740Z,1011.9
2015-11-27T01:07:07.681Z,1011.8
2015-11-27T01:08:07.589Z,1011.9
2015-11-27T01:09:07.545Z,1011.8
2015-11-27T01:10:07.485Z,1011.8
2015-11-27T01:11:07.441Z,1011.8
2015-11-27T01:12:07.366Z,1011.7
2015-11-27T01:13:07.322Z,1011.7
2015-11-27T01:14:07.246Z,1011.7
2015-11-27T01:15:07.624Z,1011.8
2015-11-27T01:16:07.158Z,1011.7
2015-11-27T01:17:07.082Z,1011.8
2015-11-27T01:18:07.023Z,1011.8
2015-11-27T01:19:06.963Z,1011.8
2015-11-27T01:20:06.919Z,1011.8
2015-11-27T01:21:06.891Z,1011.9
2015-11-27T01:22:06.799Z,1011.9
2015-11-27T01:23:06.740Z,1011.8
2015-11-27T01:24:06.696Z,1011.7
2015-11-27T01:25:06.635Z,1011.9
2015-11-27T01:26:06.577Z,1011.9
2015-11-27T01:27:06.719Z,1011.8
2015-11-27T01:28:06.456Z,1011.8
2015-11-27T01:29:06.396Z,1011.8
2015-11-27T01:30:06.368Z,1011.8
2015-11-27T01:31:06.324Z,1011.8
2015-11-27T01:32:06.232Z,1011.7
2015-11-27T01:33:06.173Z,1011.8
2015-11-27T01:34:06.113Z,1011.8
2015-11-27T01:35:06.066Z,1011.8
2015-11-27T01:36:06.006Z,1011.7
2015-11-27T01:37:05.967Z,1011.8
2015-11-27T01:38:05.889Z,1011.7
2015-11-27T01:39:05.829Z,1011.8
2015-11-27T01:40:05.769Z,1011.7
2015-11-27T01:41:05.913Z,1011.7
2015-11-27T01:42:05.666Z,1011.7
2015-11-27T01:43:05.606Z,1011.7
2015-11-27T01:44:05.536Z,1011.6
2015-11-27T01:45:05.491Z,1011.6
2015-11-27T01:46:05.478Z,1011.6
2015-11-27T01:47:05.575Z,1011.6
2015-11-27T01:48:05.327Z,1011.6
2015-11-27T01:49:05.252Z,1011.7
2015-11-27T01:50:05.441Z,1011.7
2015-11-27T01:51:05.148Z,1011.6
2015-11-27T01:52:05.104Z,1011.6
2015-11-27T01:53:05.029Z,1011.5
2015-11-27T01:54:04.985Z,1011.6
2015-11-27T01:55:04.924Z,1011.6
2015-11-27T01:56:04.866Z,1011.7
2015-11-27T01:57:04.805Z,1011.5
2015-11-27T01:58:04.747Z,1011.6
2015-11-27T01:59:04.702Z,1011.6
2015-11-27T02:00:04.642Z,1011.6
2015-11-27T02:01:04.583Z,1011.5
2015-11-27T02:02:04.539Z,1011.6
2015-11-27T02:03:04.463Z,1011.6
2015-11-27T02:04:04.403Z,1011.6
2015-11-27T02:05:04.343Z,1011.7
2015-11-27T02:06:04.300Z,1011.6
2015-11-27T02:07:03.708Z,1011.5
2015-11-27T02:08:04.179Z,1011.5
2015-11-27T02:09:04.135Z,1011.6
2015-11-27T02:10:04.076Z,1011.6
2015-11-27T02:11:04.016Z,1011.6
2015-11-27T02:12:04.159Z,1011.6
2015-11-27T02:13:03.881Z,1011.5
2015-11-27T02:14:03.852Z,1011.5
2015-11-27T02:15:03.777Z,1011.5
2015-11-27T02:16:03.718Z,1011.6
2015-11-27T02:17:03.658Z,1011.5
2015-11-27T02:18:03.613Z,1011.5
2015-11-27T02:19:03.600Z,1011.5
2015-11-27T02:20:03.493Z,1011.5
2015-11-27T02:21:03.449Z,1011.4
2015-11-27T02:22:03.390Z,1011.5
2015-11-27T02:23:03.329Z,1011.6
2015-11-27T02:24:03.270Z,1011.5
2015-11-27T02:25:03.226Z,1011.5
2015-11-27T02:26:03.151Z,1011.5
2015-11-27T02:27:03.090Z,1011.5
2015-11-27T02:28:03.031Z,1011.4
2015-11-27T02:29:02.971Z,1011.4
2015-11-27T02:30:03.146Z,1011.4
2015-11-27T02:31:02.884Z,1011.4
2015-11-27T02:32:02.807Z,1011.5
2015-11-27T02:33:02.764Z,1011.5
2015-11-27T02:34:02.687Z,1011.4
2015-11-27T02:35:02.644Z,1011.4
2015-11-27T02:36:02.584Z,1011.3
2015-11-27T02:37:02.492Z,1011.4
2015-11-27T02:38:02.699Z,1011.3
2015-11-27T02:39:02.576Z,1011.4
2015-11-27T02:40:02.329Z,1011.2
2015-11-27T02:41:02.253Z,1011.4
2015-11-27T02:42:02.225Z,1011.3
2015-11-27T02:43:02.353Z,1011.3
2015-11-27T02:44:02.105Z,1011.4
2015-11-27T02:45:02.047Z,1011.3
2015-11-27T02:46:02.220Z,1011.2
2015-11-27T02:47:01.941Z,1011.4
2015-11-27T02:48:02.100Z,1011.4
2015-11-27T02:49:01.822Z,1011.3
2015-11-27T02:50:01.747Z,1011.5
2015-11-27T02:51:01.687Z,1011.3
2015-11-27T02:52:01.658Z,1011.3
2015-11-27T02:53:01.572Z,1011.4
2015-11-27T02:54:01.731Z,1011.4
2015-11-27T02:55:01.656Z,1011.4
2015-11-27T02:56:01.409Z,1011.3
2015-11-27T02:57:00.708Z,1011.4
2015-11-27T02:58:01.290Z,1011.3
2015-11-27T02:59:01.245Z,1011.3
2015-11-27T03:00:01.185Z,1011.4
2015-11-27T03:01:01.157Z,1011.4
2015-11-27T03:02:01.081Z,1011.4
2015-11-27T03:03:01.003Z,1011.4
2015-11-27T03:04:00.959Z,1011.4
2015-11-27T03:05:00.884Z,1011.4
2015-11-27T03:06:00.840Z,1011.4
2015-11-27T03:07:00.764Z,1011.4
2015-11-27T03:08:00.954Z,1011.3
2015-11-27T03:09:00.660Z,1011.3
2015-11-27T03:10:00.600Z,1011.3
2015-11-27T03:11:00.557Z,1011.3
2015-11-27T03:12:00.481Z,1011.3
2015-11-27T03:13:00.483Z,1011.3
2015-11-27T03:14:00.376Z,1011.3
2015-11-27T03:15:00.317Z,1011.4
2015-11-27T03:16:00.242Z,1011.4
2015-11-27T03:17:00.197Z,1011.3
2015-11-27T03:18:00.153Z,1011.3
2015-11-27T03:19:00.140Z,1011.3
2015-11-27T03:20:00.284Z,1011.3
2015-11-27T03:20:59.975Z,1011.4
2015-11-27T03:21:59.914Z,1011.3
2015-11-27T03:22:59.839Z,1011.3
2015-11-27T03:23:59.810Z,1011.3
2015-11-27T03:24:59.781Z,1011.4
2015-11-27T03:25:59.707Z,1011.3
2015-11-27T03:26:59.616Z,1011.3
2015-11-27T03:27:59.758Z,1011.3
2015-11-27T03:28:59.511Z,1011.3
2015-11-27T03:29:59.686Z,1011.4
2015-11-27T03:30:59.439Z,1011.4
2015-11-27T03:31:59.566Z,1011.3
2015-11-27T03:32:59.272Z,1011.5
2015-11-27T03:33:58.463Z,1011.3
2015-11-27T03:34:59.388Z,1011.3
2015-11-27T03:35:59.343Z,1011.4
2015-11-27T03:36:59.080Z,1011.3
2015-11-27T03:37:58.988Z,1011.3
2015-11-27T03:38:58.929Z,1011.3
2015-11-27T03:39:58.869Z,1011.3
2015-11-27T03:40:58.841Z,1011.3
2015-11-27T03:41:58.766Z,1011.2
2015-11-27T03:42:58.690Z,1011.3
2015-11-27T03:43:58.833Z,1011.3
2015-11-27T03:44:58.586Z,1011.2
2015-11-27T03:45:59.010Z,1011.2
2015-11-27T03:46:57.715Z,1011.3
2015-11-27T03:47:58.423Z,1011.3
2015-11-27T03:48:58.347Z,1011.2
2015-11-27T03:49:58.287Z,1011.1
2015-11-27T03:50:58.243Z,1011.1
2015-11-27T03:51:58.184Z,1011.2
2015-11-27T03:52:58.123Z,1011.1
2015-11-27T03:53:58.079Z,1011.2
2015-11-27T03:54:58.003Z,1011.1
2015-11-27T03:55:57.991Z,1011.2
2015-11-27T03:56:57.915Z,1011.2
2015-11-27T03:57:57.090Z,1011.2
2015-11-27T03:58:57.764Z,1011.1
2015-11-27T03:59:57.705Z,1011.1
2015-11-27T04:00:57.676Z,1011.1
2015-11-27T04:01:57.585Z,1011
2015-11-27T04:02:57.556Z,1011
2015-11-27T04:03:57.497Z,1010.9
2015-11-27T04:04:57.422Z,1011.1
2015-11-27T04:05:57.378Z,1011
2015-11-27T04:06:57.317Z,1011
2015-11-27T04:07:57.242Z,1011.1
2015-11-27T04:08:57.198Z,1011.1
2015-11-27T04:09:56.639Z,1011
2015-11-27T04:10:57.095Z,1011
2015-11-27T04:11:57.206Z,1011.1
2015-11-27T04:12:56.944Z,1011.1
2015-11-27T04:13:56.899Z,1011.2
2015-11-27T04:14:56.839Z,1011
2015-11-27T04:15:56.780Z,1011
2015-11-27T04:16:56.720Z,1011
2015-11-27T04:17:56.675Z,1011
2015-11-27T04:18:56.616Z,1011.1
2015-11-27T04:19:56.541Z,1011.1
2015-11-27T04:20:56.496Z,1011.1
2015-11-27T04:21:56.433Z,1011
2015-11-27T04:22:56.374Z,1011
2015-11-27T04:23:56.298Z,1011
2015-11-27T04:24:56.238Z,1011
2015-11-27T04:25:56.226Z,1011
2015-11-27T04:26:56.151Z,1011
2015-11-27T04:27:56.169Z,1011
2015-11-27T04:28:56.016Z,1011
2015-11-27T04:29:55.955Z,1010.9
2015-11-27T04:30:55.896Z,1011
2015-11-27T04:31:56.071Z,1011.1
2015-11-27T04:32:55.792Z,1011
2015-11-27T04:33:55.716Z,1011
2015-11-27T04:34:55.673Z,1011
2015-11-27T04:35:55.612Z,1011
2015-11-27T04:36:55.553Z,1011
2015-11-27T04:37:55.508Z,1011.1
2015-11-27T04:38:55.434Z,1011.2
2015-11-27T04:39:55.404Z,1010.9
2015-11-27T04:40:55.345Z,1011
2015-11-27T04:41:55.254Z,1011.1
2015-11-27T04:42:55.209Z,1010.9
2015-11-27T04:43:55.150Z,1011
2015-11-27T04:44:55.090Z,1011.1
2015-11-27T04:45:55.030Z,1011.1
2015-11-27T04:46:54.955Z,1011.1
2015-11-27T04:47:54.911Z,1011.2
2015-11-27T04:48:54.851Z,1011.2
2015-11-27T04:49:54.994Z,1011.1
2015-11-27T04:50:54.747Z,1011.2
2015-11-27T04:51:54.672Z,1011.2
2015-11-27T04:52:54.628Z,1011
2015-11-27T04:53:54.568Z,1011.1
2015-11-27T04:54:54.523Z,1011.1
2015-11-27T04:55:54.683Z,1011.1
2015-11-27T04:56:54.372Z,1011.1
2015-11-27T04:57:54.329Z,1011.2
2015-11-27T04:58:54.284Z,1011.3
2015-11-27T04:59:54.277Z,1011
2015-11-27T05:00:54.139Z,1011.2
2015-11-27T05:01:54.095Z,1011.1
2015-11-27T05:02:54.050Z,1011.2
2015-11-27T05:03:53.976Z,1011.1
2015-11-27T05:04:53.917Z,1011.1
2015-11-27T05:05:53.856Z,1011.1
2015-11-27T05:06:53.811Z,1011.1
2015-11-27T05:07:53.768Z,1010.9
2015-11-27T05:08:53.896Z,1011
2015-11-27T05:09:53.633Z,1011.1
2015-11-27T05:10:53.573Z,1011.1
2015-11-27T05:11:53.514Z,1011.2
2015-11-27T05:12:53.453Z,1011.1
2015-11-27T05:13:53.394Z,1011.3
2015-11-27T05:14:53.350Z,1011.2
2015-11-27T05:15:53.275Z,1011.1
2015-11-27T05:16:53.230Z,1011.1
2015-11-27T05:17:53.169Z,1011.1
2015-11-27T05:18:53.345Z,1011.1
2015-11-27T05:19:53.097Z,1011.1
2015-11-27T05:20:52.991Z,1011.1
2015-11-27T05:21:52.931Z,1011.1
2015-11-27T05:22:52.871Z,1011.1
2015-11-27T05:23:52.812Z,1011.1
2015-11-27T05:24:52.736Z,1011.2
2015-11-27T05:25:52.927Z,1011
2015-11-27T05:26:52.648Z,1011
2015-11-27T05:27:52.588Z,1011.1
2015-11-27T05:28:52.560Z,1011
2015-11-27T05:29:52.781Z,1011
2015-11-27T05:30:52.644Z,1011
2015-11-27T05:31:52.349Z,1011.1
2015-11-27T05:32:52.274Z,1011
2015-11-27T05:33:52.230Z,1011.1
2015-11-27T05:34:52.263Z,1011
2015-11-27T05:35:52.110Z,1011
2015-11-27T05:36:52.050Z,1010.9
2015-11-27T05:37:52.006Z,1011.1
2015-11-27T05:38:51.931Z,1011.1
2015-11-27T05:39:51.852Z,1011
2015-11-27T05:40:51.809Z,1011
2015-11-27T05:41:51.811Z,1010.9
2015-11-27T05:42:51.892Z,1010.9
2015-11-27T05:43:51.831Z,1011
2015-11-27T05:44:51.570Z,1010.8
2015-11-27T05:45:51.651Z,1010.9
2015-11-27T05:46:51.465Z,1010.9
2015-11-27T05:47:50.859Z,1010.8
2015-11-27T05:48:51.331Z,1011
2015-11-27T05:49:51.286Z,1011
2015-11-27T05:50:51.211Z,1011
2015-11-27T05:51:51.167Z,1011
2015-11-27T05:52:51.091Z,1010.9
2015-11-27T05:53:51.047Z,1010.9
2015-11-27T05:54:51.018Z,1010.9
2015-11-27T05:55:50.928Z,1010.9
2015-11-27T05:56:50.852Z,1010.9
2015-11-27T05:57:50.792Z,1010.9
2015-11-27T05:58:50.748Z,1011
2015-11-27T05:59:50.688Z,1010.9
2015-11-27T06:00:50.629Z,1010.9
2015-11-27T06:01:50.600Z,1010.8
2015-11-27T06:02:50.509Z,1010.9
2015-11-27T06:03:50.464Z,1010.9
2015-11-27T06:04:50.389Z,1010.9
2015-11-27T06:05:50.345Z,1010.7
2015-11-27T06:06:50.301Z,1010.9
2015-11-27T06:07:50.428Z,1010.8
2015-11-27T06:08:50.166Z,1010.8
2015-11-27T06:09:50.091Z,1010.8
2015-11-27T06:10:49.311Z,1010.8
2015-11-27T06:11:50.002Z,1010.9
2015-11-27T06:12:50.129Z,1010.8
2015-11-27T06:13:49.882Z,1010.8
2015-11-27T06:14:49.808Z,1010.8
2015-11-27T06:15:49.763Z,1010.8
2015-11-27T06:16:49.891Z,1011
2015-11-27T06:17:49.690Z,1010.9
2015-11-27T06:18:49.663Z,1010.8
2015-11-27T06:19:49.508Z,1011
2015-11-27T06:20:49.449Z,1010.8
2015-11-27T06:21:49.435Z,1010.9
2015-11-27T06:22:49.344Z,1010.8
2015-11-27T06:23:49.143Z,1010.8
2015-11-27T06:24:49.225Z,1010.8
2015-11-27T06:25:49.165Z,1010.9
2015-11-27T06:26:49.121Z,1010.9
2015-11-27T06:27:49.108Z,1010.9
2015-11-27T06:28:49.001Z,1010.9
2015-11-27T06:29:48.942Z,1010.8
2015-11-27T06:30:48.866Z,1011
2015-11-27T06:31:49.041Z,1011
2015-11-27T06:32:48.778Z,1010.9
2015-11-27T06:33:48.718Z,1010.9
2015-11-27T06:34:48.831Z,1010.8
2015-11-27T06:35:48.583Z,1011
2015-11-27T06:36:48.507Z,1011
2015-11-27T06:37:48.448Z,1011
2015-11-27T06:38:48.404Z,1010.9
2015-11-27T06:39:48.328Z,1011
2015-11-27T06:40:48.284Z,1010.9
2015-11-27T06:41:48.240Z,1011
2015-11-27T06:42:48.196Z,1010.9
2015-11-27T06:43:48.105Z,1011
2015-11-27T06:44:48.045Z,1010.9
2015-11-27T06:45:47.986Z,1010.8
2015-11-27T06:46:47.909Z,1010.9
2015-11-27T06:47:47.847Z,1011
2015-11-27T06:48:47.803Z,1011
2015-11-27T06:49:47.744Z,1011.1
2015-11-27T06:50:47.684Z,1011
2015-11-27T06:51:47.624Z,1010.9
2015-11-27T06:52:47.564Z,1011.1
2015-11-27T06:53:47.536Z,1011
2015-11-27T06:54:47.444Z,1011
2015-11-27T06:55:47.385Z,1010.9
2015-11-27T06:56:47.341Z,1011
2015-11-27T06:57:47.266Z,1010.9
2015-11-27T06:58:47.221Z,1011.1
2015-11-27T06:59:47.146Z,1011.1
2015-11-27T07:00:47.086Z,1011
2015-11-27T07:01:47.041Z,1011
2015-11-27T07:02:46.982Z,1011.1
2015-11-27T07:03:46.922Z,1011.1
2015-11-27T07:04:46.847Z,1011.2
2015-11-27T07:05:46.865Z,1011.1
2015-11-27T07:06:46.758Z,1011.1
2015-11-27T07:07:46.683Z,1011.1
2015-11-27T07:08:46.623Z,1011.1
2015-11-27T07:09:46.766Z,1011.1
2015-11-27T07:10:46.504Z,1011.1
2015-11-27T07:11:46.444Z,1010.9
2015-11-27T07:12:46.384Z,1011.2
2015-11-27T07:13:46.340Z,1011
2015-11-27T07:14:45.499Z,1010.9
2015-11-27T07:15:46.221Z,1011.1
2015-11-27T07:16:46.145Z,1011
2015-11-27T07:17:46.101Z,1010.9
2015-11-27T07:18:46.040Z,1011.1
2015-11-27T07:19:45.982Z,1011
2015-11-27T07:20:45.968Z,1011
2015-11-27T07:21:45.877Z,1011
2015-11-27T07:22:45.787Z,1011
2015-11-27T07:23:45.743Z,1010.9
2015-11-27T07:24:45.917Z,1011
2015-11-27T07:25:45.622Z,1011
2015-11-27T07:26:45.562Z,1011
2015-11-27T07:27:45.518Z,1011
2015-11-27T07:28:45.459Z,1010.9
2015-11-27T07:29:45.383Z,1011
2015-11-27T07:30:45.339Z,1010.9
2015-11-27T07:31:45.342Z,1011
2015-11-27T07:32:45.204Z,1010.8
2015-11-27T07:33:45.175Z,1010.9
2015-11-27T07:34:45.287Z,1010.8
2015-11-27T07:35:45.040Z,1010.8
2015-11-27T07:36:44.980Z,1010.8
2015-11-27T07:37:44.905Z,1010.8
2015-11-27T07:38:44.861Z,1010.7
2015-11-27T07:39:45.036Z,1010.6
2015-11-27T07:40:44.788Z,1010.7
2015-11-27T07:41:44.681Z,1010.7
2015-11-27T07:42:44.481Z,1010.7
2015-11-27T07:43:44.561Z,1010.8
2015-11-27T07:44:44.518Z,1010.9
2015-11-27T07:45:44.474Z,1010.9
2015-11-27T07:46:44.633Z,1010.8
2015-11-27T07:47:44.338Z,1010.8
2015-11-27T07:48:44.294Z,1010.9
2015-11-27T07:49:44.218Z,1010.7
2015-11-27T07:50:44.191Z,1010.8
2015-11-27T07:51:44.146Z,1010.9
2015-11-27T07:52:44.056Z,1010.8
2015-11-27T07:53:43.996Z,1010.9
2015-11-27T07:54:43.951Z,1010.9
2015-11-27T07:55:43.892Z,1010.8
2015-11-27T07:56:43.832Z,1010.8
2015-11-27T07:57:43.757Z,1010.7
2015-11-27T07:58:43.713Z,1010.6
2015-11-27T07:59:43.637Z,1010.6
2015-11-27T08:00:43.593Z,1010.6
2015-11-27T08:01:43.768Z,1010.5
2015-11-27T08:02:43.677Z,1010.4
2015-11-27T08:03:43.398Z,1010.3
2015-11-27T08:04:43.415Z,1010.5
2015-11-27T08:05:43.293Z,1010.7
2015-11-27T08:06:43.437Z,1010.6
2015-11-27T08:07:43.190Z,1010.5
2015-11-27T08:08:43.114Z,1010.7
2015-11-27T08:09:43.304Z,1010.6
2015-11-27T08:10:43.010Z,1010.7
2015-11-27T08:11:42.967Z,1010.6
2015-11-27T08:12:42.906Z,1010.5
2015-11-27T08:13:42.847Z,1010.5
2015-11-27T08:14:42.849Z,1010.5
2015-11-27T08:15:42.724Z,1010.5
2015-11-27T08:16:42.695Z,1010.4
2015-11-27T08:17:42.606Z,1010.4
2015-11-27T08:18:42.825Z,1010.5
2015-11-27T08:19:42.703Z,1010.5
2015-11-27T08:20:42.472Z,1010.5
2015-11-27T08:21:42.411Z,1010.5
2015-11-27T08:22:42.368Z,1010.4
2015-11-27T08:23:42.292Z,1010.5
2015-11-27T08:24:42.233Z,1010.5
2015-11-27T08:25:42.188Z,1010.5
2015-11-27T08:26:42.144Z,1010.5
2015-11-27T08:27:42.084Z,1010.6
2015-11-27T08:28:42.056Z,1010.3
2015-11-27T08:29:41.966Z,1010.5
2015-11-27T08:30:42.015Z,1010.4
2015-11-27T08:31:42.064Z,1010.5
2015-11-27T08:32:41.863Z,1010.4
2015-11-27T08:33:41.991Z,1010.4
2015-11-27T08:34:41.776Z,1010.4
2015-11-27T08:35:41.654Z,1010.5
2015-11-27T08:36:41.874Z,1010.5
2015-11-27T08:37:41.549Z,1010.5
2015-11-27T08:38:41.802Z,1010.5
2015-11-27T08:39:41.493Z,1010.5
2015-11-27T08:40:41.385Z,1010.5
2015-11-27T08:41:41.340Z,1010.5
2015-11-27T08:42:41.282Z,1010.4
2015-11-27T08:43:41.237Z,1010.4
2015-11-27T08:44:41.162Z,1010.4
2015-11-27T08:45:41.118Z,1010.3
2015-11-27T08:46:41.074Z,1010.5
2015-11-27T08:47:40.998Z,1010.2
2015-11-27T08:48:40.954Z,1010.3
2015-11-27T08:49:40.895Z,1010.2
2015-11-27T08:50:40.882Z,1010.3
2015-11-27T08:51:40.790Z,1010.3
2015-11-27T08:52:40.746Z,1010.2
2015-11-27T08:53:40.687Z,1010.2
2015-11-27T08:54:40.626Z,1010.1
2015-11-27T08:55:40.583Z,1010.2
2015-11-27T08:56:40.757Z,1010.2
2015-11-27T08:57:40.464Z,1010.1
2015-11-27T08:58:40.434Z,1010
2015-11-27T08:59:40.365Z,1010.1
2015-11-27T09:00:40.324Z,1010.1
2015-11-27T09:01:40.248Z,1010
2015-11-27T09:02:40.235Z,1010.1
2015-11-27T09:03:40.207Z,1010
2015-11-27T09:04:40.303Z,1010.1
2015-11-27T09:05:40.071Z,1010
2015-11-27T09:06:39.996Z,1010
2015-11-27T09:07:39.951Z,1010
2015-11-27T09:08:39.893Z,1010
2015-11-27T09:09:39.848Z,1010.1
2015-11-27T09:10:39.803Z,1010
2015-11-27T09:11:39.744Z,1009.9
2015-11-27T09:12:39.669Z,1009.9
2015-11-27T09:13:39.655Z,1009.8
2015-11-27T09:14:39.581Z,1009.8
2015-11-27T09:15:39.536Z,1009.9
2015-11-27T09:16:39.461Z,1009.8
2015-11-27T09:17:39.433Z,1009.8
2015-11-27T09:18:39.372Z,1009.8
2015-11-27T09:19:39.328Z,1009.8
2015-11-27T09:20:39.269Z,1009.8
2015-11-27T09:21:39.224Z,1009.8
2015-11-27T09:22:39.164Z,1009.8
2015-11-27T09:23:39.120Z,1009.7
2015-11-27T09:24:39.045Z,1009.8
2015-11-27T09:25:39.016Z,1009.8
2015-11-27T09:26:38.957Z,1009.8
2015-11-27T09:27:38.912Z,1009.8
2015-11-27T09:28:38.931Z,1009.8
2015-11-27T09:29:38.840Z,1009.8
2015-11-27T09:30:38.780Z,1009.8
2015-11-27T09:31:38.741Z,1009.7
2015-11-27T09:32:38.696Z,1009.7
2015-11-27T09:33:38.621Z,1009.7
2015-11-27T09:34:38.562Z,1009.7
2015-11-27T09:35:38.485Z,1009.7
2015-11-27T09:36:38.411Z,1009.8
2015-11-27T09:37:38.382Z,1009.8
2015-11-27T09:38:38.304Z,1009.8
2015-11-27T09:39:38.306Z,1009.7
2015-11-27T09:40:38.208Z,1009.7
2015-11-27T09:41:38.139Z,1009.6
2015-11-27T09:42:38.099Z,1009.6
2015-11-27T09:43:37.999Z,1009.7
2015-11-27T09:44:37.944Z,1009.6
2015-11-27T09:45:37.893Z,1009.7
2015-11-27T09:46:37.830Z,1009.7
2015-11-27T09:47:37.782Z,1009.6
2015-11-27T09:48:37.734Z,1009.8
2015-11-27T09:49:37.670Z,1009.5
2015-11-27T09:50:37.609Z,1009.6
2015-11-27T09:51:37.610Z,1009.7
2015-11-27T09:52:37.501Z,1009.5
2015-11-27T09:53:37.456Z,1009.6
2015-11-27T09:54:37.396Z,1009.6
2015-11-27T09:55:37.398Z,1009.5
2015-11-27T09:56:37.275Z,1009.5
2015-11-27T09:57:37.246Z,1009.5
2015-11-27T09:58:37.201Z,1009.5
2015-11-27T09:59:37.140Z,1009.4
2015-11-27T10:00:37.096Z,1009.4
2015-11-27T10:01:37.021Z,1009.5
2015-11-27T10:02:36.975Z,1009.5
2015-11-27T10:03:36.900Z,1009.5
2015-11-27T10:04:36.840Z,1009.5
2015-11-27T10:05:36.796Z,1009.5
2015-11-27T10:06:36.736Z,1009.3
2015-11-27T10:07:36.711Z,1009.4
2015-11-27T10:08:36.620Z,1009.4
2015-11-27T10:09:36.592Z,1009.4
2015-11-27T10:10:36.750Z,1009.4
2015-11-27T10:11:36.457Z,1009.4
2015-11-27T10:12:36.412Z,1009.5
2015-11-27T10:13:36.369Z,1009.4
2015-11-27T10:14:36.340Z,1009.4
2015-11-27T10:15:36.451Z,1009.4
2015-11-27T10:16:36.205Z,1009.3
2015-11-27T10:17:36.191Z,1009.3
2015-11-27T10:18:36.351Z,1009.3
2015-11-27T10:19:36.056Z,1009.3
2015-11-27T10:20:35.981Z,1009.3
2015-11-27T10:21:35.937Z,1009.3
2015-11-27T10:22:35.908Z,1009.2
2015-11-27T10:23:35.818Z,1009.2
2015-11-27T10:24:35.788Z,1009.2
2015-11-27T10:25:35.978Z,1009.3
2015-11-27T10:26:34.950Z,1009.3
2015-11-27T10:27:35.609Z,1009.2
2015-11-27T10:28:35.548Z,1009.2
2015-11-27T10:29:35.505Z,1009.2
2015-11-27T10:30:35.461Z,1009.2
2015-11-27T10:31:35.385Z,1009.2
2015-11-27T10:32:35.342Z,1009.1
2015-11-27T10:33:35.297Z,1009.2
2015-11-27T10:34:35.236Z,1009.3
2015-11-27T10:35:35.178Z,1009.2
2015-11-27T10:36:35.149Z,1009.3
2015-11-27T10:37:35.323Z,1009.3
2015-11-27T10:38:35.013Z,1009.2
2015-11-27T10:39:34.969Z,1009.3
2015-11-27T10:40:34.894Z,1009.2
2015-11-27T10:41:34.850Z,1009.4
2015-11-27T10:42:34.790Z,1009.2
2015-11-27T10:43:34.746Z,1009.3
2015-11-27T10:44:34.921Z,1009.1
2015-11-27T10:45:34.627Z,1009.1
2015-11-27T10:46:34.582Z,1009.2
2015-11-27T10:47:34.756Z,1009.1
2015-11-27T10:48:34.478Z,1009
2015-11-27T10:49:34.418Z,1009.1
2015-11-27T10:50:34.358Z,1009
2015-11-27T10:51:34.329Z,1009
2015-11-27T10:52:34.238Z,1009
2015-11-27T10:53:34.209Z,1009.1
2015-11-27T10:54:34.119Z,1009
2015-11-27T10:55:34.075Z,1009
2015-11-27T10:56:34.030Z,1009
2015-11-27T10:57:33.971Z,1009
2015-11-27T10:58:33.942Z,1008.9
2015-11-27T10:59:34.101Z,1009
2015-11-27T11:00:33.807Z,1008.9
2015-11-27T11:01:33.747Z,1009
2015-11-27T11:02:33.703Z,1008.9
2015-11-27T11:03:33.659Z,1009
2015-11-27T11:04:33.427Z,1008.8
2015-11-27T11:05:33.570Z,1008.9
2015-11-27T11:06:33.479Z,1008.9
2015-11-27T11:07:33.420Z,1008.9
2015-11-27T11:08:33.360Z,1008.8
2015-11-27T11:09:33.316Z,1008.8
2015-11-27T11:10:33.241Z,1008.6
2015-11-27T11:11:33.196Z,1008.7
2015-11-27T11:12:33.136Z,1008.6
2015-11-27T11:13:33.092Z,1008.6
2015-11-27T11:14:33.032Z,1008.6
2015-11-27T11:15:32.971Z,1008.4
2015-11-27T11:16:32.944Z,1008.5
2015-11-27T11:17:32.868Z,1008.5
2015-11-27T11:18:32.824Z,1008.6
2015-11-27T11:19:32.765Z,1008.6
2015-11-27T11:20:32.704Z,1008.6
2015-11-27T11:21:32.645Z,1008.5
2015-11-27T11:22:32.585Z,1008.6
2015-11-27T11:23:32.540Z,1008.5
2015-11-27T11:24:32.481Z,1008.4
2015-11-27T11:25:32.452Z,1008.5
2015-11-27T11:26:32.580Z,1008.5
2015-11-27T11:27:32.318Z,1008.5
2015-11-27T11:28:32.257Z,1008.4
2015-11-27T11:29:32.213Z,1008.4
2015-11-27T11:30:32.169Z,1008.4
2015-11-27T11:31:32.109Z,1008.3
2015-11-27T11:32:32.050Z,1008.3
2015-11-27T11:33:32.005Z,1008.3
2015-11-27T11:34:32.008Z,1008.2
2015-11-27T11:35:31.917Z,1008.2
2015-11-27T11:36:31.825Z,1008
2015-11-27T11:37:31.766Z,1008
2015-11-27T11:38:31.722Z,1008
2015-11-27T11:39:30.912Z,1007.8
2015-11-27T11:40:31.602Z,1007.9
2015-11-27T11:41:31.542Z,1007.9
2015-11-27T11:42:31.497Z,1007.9
2015-11-27T11:43:31.438Z,1008
2015-11-27T11:44:31.394Z,1008
2015-11-27T11:45:31.349Z,1007.8
2015-11-27T11:46:31.291Z,1007.6
2015-11-27T11:47:31.215Z,1007.7
2015-11-27T11:48:31.155Z,1007.7
2015-11-27T11:49:31.126Z,1007.6
2015-11-27T11:50:31.082Z,1007.6
2015-11-27T11:51:31.241Z,1007.6
2015-11-27T11:52:30.962Z,1007.7
2015-11-27T11:53:30.887Z,1007.6
2015-11-27T11:54:30.843Z,1007.5
2015-11-27T11:55:30.799Z,1007.5
2015-11-27T11:56:30.582Z,1007.4
2015-11-27T11:57:30.663Z,1007.3
2015-11-27T11:58:30.634Z,1007.4
2015-11-27T11:59:30.591Z,1007.2
2015-11-27T12:00:30.531Z,1007.2
2015-11-27T12:01:30.470Z,1007.2
2015-11-27T12:02:30.411Z,1007
2015-11-27T12:03:33.836Z,1007.1
2015-11-27T12:04:30.307Z,1007
2015-11-27T12:05:30.279Z,1007
2015-11-27T12:06:30.203Z,1007
2015-11-27T12:07:30.144Z,1006.8
2015-11-27T12:08:30.114Z,1006.9
2015-11-27T12:09:30.086Z,1006.9
2015-11-27T12:10:29.980Z,1006.9
2015-11-27T12:11:29.983Z,1007.1
2015-11-27T12:12:29.891Z,1007.1
2015-11-27T12:13:29.816Z,1007.3
2015-11-27T12:14:29.787Z,1007.3
2015-11-27T12:15:29.727Z,1007.4
2015-11-27T12:16:29.668Z,1007.1
2015-11-27T12:17:29.920Z,1007.1
2015-11-27T12:18:29.767Z,1007.1
2015-11-27T12:19:29.504Z,1007.1
2015-11-27T12:20:29.460Z,1007.1
2015-11-27T12:21:29.416Z,1007
2015-11-27T12:22:29.418Z,1007
2015-11-27T12:23:29.343Z,1007.1
2015-11-27T12:24:29.252Z,1007.2
2015-11-27T12:25:29.192Z,1007.1
2015-11-27T12:26:29.132Z,1007.1
2015-11-27T12:27:29.087Z,1007.2
2015-11-27T12:28:29.043Z,1007.1
2015-11-27T12:29:29.016Z,1007.1
2015-11-27T12:30:28.924Z,1007.1
2015-11-27T12:31:28.879Z,1007.1
2015-11-27T12:32:28.836Z,1007.1
2015-11-27T12:33:28.792Z,1007.1
2015-11-27T12:34:28.731Z,1007
2015-11-27T12:35:28.672Z,1007